Time;durP1;ratioP1;P1;durP2;ratioP2;P2;SDS_P1;SDS_P2;PMS_P1;PMS_P2;Temp;Humidity;BMP_temperature;BMP_pressure;BME280_temperature;BME280_humidity;BME280_pressure;Samples;Min_cycle;Max_cycle;Signal;HPM_P1;HPM_P2
2021/11/16 00:00:22;;;;;;;55.47;19.98;;;6.80;99.90;;;;;;4860037;29;20035;-85
2021/11/16 00:02:49;;;;;;;53.10;16.67;;;6.80;99.90;;;;;;4845556;29;20053;-85
2021/11/16 00:05:14;;;;;;;51.10;18.00;;;6.90;99.90;;;;;;4839708;29;20018;-84
2021/11/16 00:07:40;;;;;;;60.70;20.15;;;6.90;99.90;;;;;;4861401;29;20786;-84
2021/11/16 00:10:07;;;;;;;51.75;17.48;;;6.90;99.90;;;;;;4845040;29;20037;-85
2021/11/16 00:12:33;;;;;;;60.58;20.55;;;6.80;99.90;;;;;;4857515;29;20061;-84
2021/11/16 00:14:59;;;;;;;48.97;17.15;;;6.80;99.90;;;;;;4857897;29;20025;-83
2021/11/16 00:17:24;;;;;;;50.10;17.10;;;6.80;99.90;;;;;;4840520;29;20037;-84
2021/11/16 00:19:51;;;;;;;58.40;18.17;;;6.80;99.90;;;;;;4859719;29;20116;-85
2021/11/16 00:22:18;;;;;;;51.75;18.52;;;6.80;99.90;;;;;;4859999;29;20579;-83
2021/11/16 00:25:09;;;;;;;47.28;17.27;;;6.80;99.90;;;;;;4842808;29;20049;-84
2021/11/16 00:27:37;;;;;;;54.30;17.73;;;6.80;99.90;;;;;;4859036;29;20034;-83
2021/11/16 00:30:05;;;;;;;52.03;17.55;;;6.90;99.90;;;;;;4845765;29;20038;-85
2021/11/16 00:32:30;;;;;;;52.45;18.77;;;6.90;99.90;;;;;;4841569;29;20467;-86
2021/11/16 00:34:56;;;;;;;53.58;19.38;;;6.90;99.90;;;;;;4860092;29;20033;-85
2021/11/16 00:37:28;;;;;;;55.53;18.80;;;6.90;99.90;;;;;;4860919;29;20124;-85
2021/11/16 00:39:59;;;;;;;52.00;17.73;;;6.90;99.90;;;;;;4842846;29;20490;-84
2021/11/16 00:42:26;;;;;;;54.08;19.42;;;6.90;99.90;;;;;;4841283;29;20093;-80
2021/11/16 00:44:52;;;;;;;49.78;18.02;;;7.00;99.90;;;;;;4860442;29;20022;-85
2021/11/16 00:47:18;;;;;;;49.65;17.33;;;7.00;99.90;;;;;;4840571;29;20399;-84
2021/11/16 00:49:45;;;;;;;46.70;18.08;;;6.90;99.90;;;;;;4861748;29;20005;-84
2021/11/16 00:52:11;;;;;;;52.60;18.13;;;6.80;99.90;;;;;;4842833;29;20635;-84
2021/11/16 00:54:37;;;;;;;45.50;17.38;;;6.70;99.90;;;;;;4860583;29;20049;-83
2021/11/16 00:57:04;;;;;;;54.67;19.00;;;6.60;99.90;;;;;;4842818;29;20101;-86
2021/11/16 00:59:31;;;;;;;51.88;18.92;;;6.70;99.90;;;;;;4860564;29;20390;-84
2021/11/16 01:01:56;;;;;;;44.03;17.33;;;6.70;99.90;;;;;;4860234;29;20030;-84
2021/11/16 01:04:27;;;;;;;51.85;20.13;;;6.70;99.90;;;;;;4840939;29;20136;-81
2021/11/16 01:06:53;;;;;;;54.00;18.40;;;6.70;99.90;;;;;;4842653;29;20060;-84
2021/11/16 01:09:19;;;;;;;51.80;19.55;;;6.70;99.90;;;;;;4859421;29;20034;-84
2021/11/16 01:11:45;;;;;;;54.75;19.60;;;6.80;99.90;;;;;;4844252;29;20037;-86
2021/11/16 01:14:11;;;;;;;54.40;17.70;;;6.70;99.90;;;;;;4859339;29;20093;-86
2021/11/16 01:16:37;;;;;;;51.25;17.75;;;6.80;99.90;;;;;;4857382;29;20551;-85
2021/11/16 01:19:06;;;;;;;44.92;17.50;;;6.80;99.90;;;;;;4847528;29;20041;-84
2021/11/16 01:21:33;;;;;;;50.05;17.42;;;6.70;99.90;;;;;;4847015;29;20033;-85
2021/11/16 01:23:59;;;;;;;45.15;16.80;;;6.70;99.90;;;;;;4847540;29;20104;-85
2021/11/16 01:26:25;;;;;;;49.65;17.23;;;6.70;99.90;;;;;;4847404;29;20045;-83
2021/11/16 01:28:51;;;;;;;52.05;18.58;;;6.80;99.90;;;;;;4846566;29;20109;-83
2021/11/16 01:31:17;;;;;;;54.97;17.88;;;6.70;99.90;;;;;;4845814;29;20905;-85
2021/11/16 01:33:57;;;;;;;52.38;19.10;;;6.70;99.90;;;;;;4863723;29;20063;-84
2021/11/16 01:36:23;;;;;;;55.03;17.63;;;6.70;99.90;;;;;;4847052;29;20036;-85
2021/11/16 01:38:51;;;;;;;58.67;19.77;;;6.70;99.90;;;;;;4864014;29;20026;-85
2021/11/16 01:41:18;;;;;;;60.60;19.20;;;6.70;99.90;;;;;;4847146;29;20111;-84
2021/11/16 01:43:44;;;;;;;55.63;19.77;;;6.70;99.90;;;;;;4846461;29;20401;-84
2021/11/16 01:46:14;;;;;;;50.97;18.80;;;6.80;99.90;;;;;;4864012;29;20483;-84
2021/11/16 01:48:46;;;;;;;53.00;18.55;;;6.80;99.90;;;;;;4847644;29;20486;-85
2021/11/16 01:51:12;;;;;;;51.13;17.88;;;6.70;99.90;;;;;;4865157;29;20399;-84
2021/11/16 01:53:38;;;;;;;52.25;18.85;;;6.60;99.90;;;;;;4847327;29;20045;-84
2021/11/16 01:56:05;;;;;;;60.83;20.10;;;6.50;99.90;;;;;;4847609;29;20507;-85
2021/11/16 01:58:31;;;;;;;50.57;18.80;;;6.50;99.90;;;;;;4847413;29;20037;-84
2021/11/16 02:00:57;;;;;;;64.60;19.58;;;6.50;99.90;;;;;;4846608;29;20030;-85
2021/11/16 02:03:24;;;;;;;51.90;18.20;;;6.60;99.90;;;;;;4863227;29;20120;-85
2021/11/16 02:05:56;;;;;;;55.28;18.88;;;6.60;99.90;;;;;;4846618;29;20045;-84
2021/11/16 02:08:23;;;;;;;47.97;19.15;;;6.60;99.90;;;;;;4846203;29;20582;-85
2021/11/16 02:10:52;;;;;;;47.25;19.45;;;6.70;99.90;;;;;;4862660;29;20037;-84
2021/11/16 02:13:19;;;;;;;53.22;20.17;;;6.70;99.90;;;;;;4863414;29;20116;-84
2021/11/16 02:15:46;;;;;;;54.20;18.52;;;6.80;99.90;;;;;;4863492;29;20420;-85
2021/11/16 02:18:13;;;;;;;50.05;17.42;;;6.80;99.90;;;;;;4862640;29;20109;-82
2021/11/16 02:20:44;;;;;;;43.25;16.92;;;6.80;99.90;;;;;;4862722;29;20478;-85
2021/11/16 02:23:11;;;;;;;58.95;19.83;;;6.90;99.90;;;;;;4845944;29;20086;-85
2021/11/16 02:25:37;;;;;;;51.92;19.65;;;6.90;99.90;;;;;;4861398;29;20025;-84
2021/11/16 02:28:04;;;;;;;53.72;18.02;;;6.90;99.90;;;;;;4845159;29;20124;-80
2021/11/16 02:30:30;;;;;;;51.45;18.50;;;6.80;99.90;;;;;;4845116;29;20034;-81
2021/11/16 02:32:56;;;;;;;55.33;19.35;;;6.80;99.90;;;;;;4845376;29;20051;-82
2021/11/16 02:35:27;;;;;;;58.03;18.83;;;6.80;99.90;;;;;;4862107;29;20045;-82
2021/11/16 02:38:12;;;;;;;61.17;19.90;;;6.90;99.90;;;;;;4845238;29;20093;-82
2021/11/16 02:40:38;;;;;;;58.30;18.83;;;6.80;99.90;;;;;;4845195;29;20033;-84
2021/11/16 02:43:04;;;;;;;45.45;18.85;;;6.80;99.90;;;;;;4864984;29;20036;-85
2021/11/16 02:45:30;;;;;;;54.33;17.83;;;6.80;99.90;;;;;;4862714;29;20033;-84
2021/11/16 02:47:56;;;;;;;62.33;20.23;;;6.90;99.90;;;;;;4846068;29;20521;-85
2021/11/16 02:50:22;;;;;;;48.75;18.40;;;6.80;99.90;;;;;;4862248;29;20112;-85
2021/11/16 02:52:48;;;;;;;47.42;17.88;;;6.80;99.90;;;;;;4846020;29;20383;-85
2021/11/16 02:55:15;;;;;;;50.25;17.65;;;6.80;99.90;;;;;;4845755;29;20078;-84
2021/11/16 02:57:41;;;;;;;56.53;18.90;;;6.80;99.90;;;;;;4846435;29;20046;-85
2021/11/16 03:00:11;;;;;;;53.38;18.67;;;6.80;99.90;;;;;;4862941;29;20028;-85
2021/11/16 03:02:41;;;;;;;55.25;19.55;;;6.80;99.90;;;;;;4862704;29;20025;-87
2021/11/16 03:05:07;;;;;;;45.97;18.40;;;6.80;99.90;;;;;;4862831;29;20562;-84
2021/11/16 03:07:35;;;;;;;46.17;17.58;;;6.70;99.90;;;;;;4862822;29;20395;-85
2021/11/16 03:10:03;;;;;;;55.42;19.13;;;6.70;99.90;;;;;;4855685;29;20069;-83
2021/11/16 03:12:29;;;;;;;58.80;18.92;;;6.80;99.90;;;;;;4858045;29;20104;-85
2021/11/16 03:14:56;;;;;;;50.08;18.00;;;6.80;99.90;;;;;;4862987;29;20558;-82
2021/11/16 03:17:24;;;;;;;48.13;18.48;;;6.80;99.90;;;;;;4864692;29;20028;-84
2021/11/16 03:19:50;;;;;;;53.25;19.10;;;6.90;99.90;;;;;;4852174;29;20034;-84
2021/11/16 03:22:16;;;;;;;49.30;17.83;;;6.90;99.90;;;;;;4864741;29;20479;-82
2021/11/16 03:24:43;;;;;;;56.63;20.35;;;7.00;99.90;;;;;;4852416;29;20070;-85
2021/11/16 03:27:11;;;;;;;55.33;18.73;;;6.90;99.90;;;;;;4866492;29;20034;-85
2021/11/16 03:29:42;;;;;;;;;;;6.90;99.90;;;;;;4849653;29;20057;-85
2021/11/16 03:32:11;;;;;;;51.17;18.25;;;6.70;99.90;;;;;;4868884;29;19939;-85
2021/11/16 03:34:37;;;;;;;45.42;17.38;;;6.70;99.90;;;;;;4868237;29;20029;-85
2021/11/16 03:37:03;;;;;;;53.53;18.42;;;6.70;99.90;;;;;;4851066;29;20032;-85
2021/11/16 03:39:30;;;;;;;53.80;18.90;;;6.60;99.90;;;;;;4851142;29;20117;-84
2021/11/16 03:41:56;;;;;;;47.05;17.25;;;6.60;99.90;;;;;;4850501;29;20089;-85
2021/11/16 03:44:24;;;;;;;47.65;18.38;;;6.60;99.90;;;;;;4844421;29;20076;-84
2021/11/16 03:46:49;;;;;;;55.43;19.27;;;6.60;99.90;;;;;;4864655;29;20364;-84
2021/11/16 03:49:15;;;;;;;52.47;19.33;;;6.70;99.90;;;;;;4866625;29;20080;-83
2021/11/16 03:51:44;;;;;;;57.47;19.23;;;6.70;99.90;;;;;;4857478;29;20067;-84
2021/11/16 03:54:10;;;;;;;50.65;18.38;;;6.70;99.90;;;;;;4881714;29;20044;-85
2021/11/16 03:56:36;;;;;;;47.47;18.63;;;6.70;99.90;;;;;;4884013;29;20123;-86
2021/11/16 03:59:03;;;;;;;52.55;18.48;;;6.70;99.90;;;;;;4885373;29;20041;-85
2021/11/16 04:01:29;;;;;;;51.17;18.83;;;6.70;99.90;;;;;;4869918;29;20032;-84
2021/11/16 04:03:56;;;;;;;51.20;17.73;;;6.70;99.90;;;;;;4886782;29;20119;-81
2021/11/16 04:06:23;;;;;;;59.00;19.73;;;6.80;99.90;;;;;;4866271;29;20101;-85
2021/11/16 04:08:49;;;;;;;56.90;19.27;;;6.80;99.90;;;;;;4872257;29;20053;-83
2021/11/16 04:11:14;;;;;;;54.35;19.02;;;6.80;99.90;;;;;;4871298;29;20025;-84
2021/11/16 04:13:41;;;;;;;56.00;18.85;;;6.80;99.90;;;;;;4855395;29;20495;-84
2021/11/16 04:16:06;;;;;;;58.38;19.58;;;6.80;99.90;;;;;;4870431;29;20380;-85
2021/11/16 04:18:33;;;;;;;54.65;19.02;;;6.70;99.90;;;;;;4851791;29;20136;-85
2021/11/16 04:20:59;;;;;;;48.28;16.27;;;6.80;99.90;;;;;;4866446;29;20025;-85
2021/11/16 04:23:26;;;;;;;59.63;19.58;;;6.80;99.90;;;;;;4849651;29;20176;-84
2021/11/16 04:25:54;;;;;;;56.78;18.67;;;6.80;99.90;;;;;;4865710;29;20037;-85
2021/11/16 04:28:20;;;;;;;54.80;19.15;;;6.80;99.90;;;;;;4864500;29;20021;-84
2021/11/16 04:30:47;;;;;;;54.72;19.02;;;6.80;99.90;;;;;;4865097;29;20103;-86
2021/11/16 04:33:14;;;;;;;58.05;18.15;;;6.80;99.90;;;;;;4865231;29;20033;-84
2021/11/16 04:35:40;;;;;;;58.88;20.95;;;6.70;99.90;;;;;;4865386;29;20491;-84
2021/11/16 04:38:08;;;;;;;52.97;18.98;;;6.80;99.90;;;;;;4864937;29;20403;-84
2021/11/16 04:40:38;;;;;;;54.92;20.83;;;6.80;99.90;;;;;;4867098;29;20022;-84
2021/11/16 04:43:12;;;;;;;59.33;20.13;;;6.80;99.90;;;;;;4864980;29;20037;-84
2021/11/16 04:45:40;;;;;;;47.90;18.35;;;6.80;99.90;;;;;;4864907;29;20440;-85
2021/11/16 04:48:13;;;;;;;46.45;17.67;;;6.80;99.90;;;;;;4848598;29;20089;-85
2021/11/16 04:53:58;;;;;;;62.95;19.50;;;6.70;99.90;;;;;;4865015;29;20112;-85
2021/11/16 05:03:58;;;;;;;50.25;18.45;;;6.60;99.90;;;;;;4857891;29;20135;-85
2021/11/16 05:06:24;;;;;;;60.10;19.92;;;6.60;99.90;;;;;;4848444;29;20062;-84
2021/11/16 05:08:50;;;;;;;54.03;17.73;;;6.60;99.90;;;;;;4847689;29;20072;-86
2021/11/16 05:11:18;;;;;;;48.10;18.27;;;6.60;99.90;;;;;;4847459;29;20053;-85
2021/11/16 05:13:45;;;;;;;51.47;17.85;;;6.60;99.90;;;;;;4848114;29;20475;-86
2021/11/16 05:16:12;;;;;;;48.92;18.25;;;6.70;99.90;;;;;;4845288;29;20025;-85
2021/11/16 05:18:39;;;;;;;48.78;19.30;;;6.60;99.90;;;;;;4847954;29;20033;-85
2021/11/16 05:21:06;;;;;;;38.53;12.93;;;6.60;99.90;;;;;;4864463;29;20407;-86
2021/11/16 05:23:36;;;;;;;59.25;19.00;;;6.60;99.90;;;;;;4858374;29;20033;-85
2021/11/16 05:26:03;;;;;;;52.85;18.83;;;6.60;99.90;;;;;;4847086;29;20042;-86
2021/11/16 05:28:29;;;;;;;53.17;19.27;;;6.60;99.90;;;;;;4877964;29;20041;-85
2021/11/16 05:30:55;;;;;;;56.00;19.75;;;6.70;99.90;;;;;;4865305;29;20300;-85
2021/11/16 05:33:24;;;;;;;57.92;19.58;;;6.70;99.90;;;;;;4858759;29;20030;-86
2021/11/16 05:35:51;;;;;;;44.30;16.55;;;6.60;99.90;;;;;;4848050;29;20071;-85
2021/11/16 05:38:27;;;;;;;52.53;19.45;;;6.70;99.90;;;;;;4863888;29;20017;-84
2021/11/16 05:40:53;;;;;;;56.80;18.55;;;6.70;99.90;;;;;;4842601;29;20034;-84
2021/11/16 05:43:19;;;;;;;52.97;19.52;;;6.70;99.90;;;;;;4864548;29;20036;-85
2021/11/16 05:45:46;;;;;;;56.90;17.85;;;6.80;99.90;;;;;;4863985;29;20041;-84
2021/11/16 05:48:12;;;;;;;53.58;18.60;;;6.90;99.90;;;;;;4863553;29;20507;-83
2021/11/16 05:50:38;;;;;;;58.63;18.35;;;6.80;99.90;;;;;;4847822;29;20622;-84
2021/11/16 05:53:05;;;;;;;53.92;18.17;;;6.70;99.90;;;;;;4846716;29;20109;-84
2021/11/16 05:55:31;;;;;;;50.45;17.73;;;6.70;99.90;;;;;;4846855;29;20053;-87
2021/11/16 05:57:57;;;;;;;56.00;20.10;;;6.70;99.90;;;;;;4846673;29;20025;-84
2021/11/16 06:00:23;;;;;;;58.95;19.13;;;6.70;99.90;;;;;;4846473;29;20164;-84
2021/11/16 06:02:49;;;;;;;54.50;19.10;;;6.70;99.90;;;;;;4863683;29;20040;-85
2021/11/16 06:05:15;;;;;;;51.60;18.55;;;6.70;99.90;;;;;;4846437;29;20029;-86
2021/11/16 06:07:41;;;;;;;49.78;18.50;;;6.70;99.90;;;;;;4863017;29;20100;-86
2021/11/16 06:10:07;;;;;;;62.80;20.83;;;6.70;99.90;;;;;;4862329;29;20030;-85
2021/11/16 06:12:34;;;;;;;55.78;18.48;;;6.60;99.90;;;;;;4863219;29;20013;-86
2021/11/16 06:14:59;;;;;;;60.55;19.45;;;6.60;99.90;;;;;;4863786;29;20041;-85
2021/11/16 06:17:25;;;;;;;53.72;20.20;;;6.60;99.90;;;;;;4862833;29;20483;-85
2021/11/16 06:19:52;;;;;;;55.58;18.80;;;6.60;99.90;;;;;;4846590;29;20112;-84
2021/11/16 06:22:17;;;;;;;47.33;17.63;;;6.60;99.90;;;;;;4863625;29;20415;-85
2021/11/16 06:24:43;;;;;;;56.95;19.98;;;6.60;99.90;;;;;;4863606;29;20094;-84
2021/11/16 06:27:09;;;;;;;50.28;17.95;;;6.60;99.90;;;;;;4862282;29;20064;-84
2021/11/16 06:29:35;;;;;;;57.42;19.90;;;6.70;99.90;;;;;;4846173;29;20037;-84
2021/11/16 06:32:01;;;;;;;51.67;18.75;;;6.60;99.90;;;;;;4862316;29;20104;-85
2021/11/16 06:34:27;;;;;;;56.83;20.42;;;6.60;99.90;;;;;;4845943;29;20030;-85
2021/11/16 06:36:53;;;;;;;57.38;19.20;;;6.50;99.90;;;;;;4845771;29;20134;-85
2021/11/16 06:39:21;;;;;;;64.10;19.80;;;6.50;99.90;;;;;;4846129;29;20467;-86
2021/11/16 06:41:47;;;;;;;54.38;20.45;;;6.50;99.90;;;;;;4846515;29;20042;-87
2021/11/16 06:44:15;;;;;;;49.30;18.10;;;6.60;99.90;;;;;;4863977;29;20034;-83
2021/11/16 06:46:41;;;;;;;63.08;20.35;;;6.60;99.90;;;;;;4862573;29;20033;-85
2021/11/16 06:49:09;;;;;;;58.50;19.83;;;6.70;99.90;;;;;;4847028;29;20033;-86
2021/11/16 06:51:37;;;;;;;58.27;20.10;;;6.70;99.90;;;;;;4848040;29;20037;-84
2021/11/16 06:54:17;;;;;;;56.20;20.25;;;6.70;99.90;;;;;;4846057;29;20049;-84
2021/11/16 06:56:46;;;;;;;63.70;20.55;;;6.60;99.90;;;;;;4864125;29;20056;-84
2021/11/16 06:59:12;;;;;;;60.05;20.77;;;6.60;99.90;;;;;;4847052;29;20033;-84
2021/11/16 07:01:38;;;;;;;58.63;18.13;;;6.50;99.90;;;;;;4852773;29;20089;-84
2021/11/16 07:04:09;;;;;;;56.10;19.20;;;6.50;99.90;;;;;;4846988;29;20054;-85
2021/11/16 07:06:37;;;;;;;53.85;19.90;;;6.60;99.90;;;;;;4846314;29;20038;-85
2021/11/16 07:09:04;;;;;;;50.65;16.88;;;6.70;99.90;;;;;;4863376;29;20061;-86
2021/11/16 07:11:30;;;;;;;50.92;18.15;;;6.70;99.90;;;;;;4863958;29;20038;-85
2021/11/16 07:14:01;;;;;;;55.03;19.48;;;6.70;99.90;;;;;;4863864;29;20041;-86
2021/11/16 07:16:32;;;;;;;57.67;20.00;;;6.80;99.90;;;;;;4862977;29;20030;-86
2021/11/16 07:19:01;;;;;;;64.72;19.50;;;6.70;99.90;;;;;;4861036;29;20128;-86
2021/11/16 07:21:27;;;;;;;;;;;6.80;99.90;;;;;;4864670;29;20033;-85
2021/11/16 07:24:03;;;;;;;57.22;18.65;;;6.80;99.90;;;;;;4863100;29;19962;-85
2021/11/16 07:26:29;;;;;;;61.67;20.83;;;6.70;99.90;;;;;;4847670;29;20041;-86
2021/11/16 07:28:55;;;;;;;63.65;17.70;;;6.60;99.90;;;;;;4866761;29;20108;-85
2021/11/16 07:31:22;;;;;;;60.78;19.83;;;6.60;99.90;;;;;;4866983;29;20088;-85
2021/11/16 07:33:50;;;;;;;58.30;18.98;;;6.60;99.90;;;;;;4867029;29;20117;-84
2021/11/16 07:36:17;;;;;;;53.55;18.55;;;6.70;99.90;;;;;;4848555;29;20061;-84
2021/11/16 07:38:48;;;;;;;65.07;19.27;;;6.70;99.90;;;;;;4868101;29;20033;-86
2021/11/16 07:41:23;;;;;;;59.88;19.13;;;6.70;99.90;;;;;;4854294;29;20037;-86
2021/11/16 07:43:49;;;;;;;63.85;19.80;;;6.70;99.90;;;;;;4867590;29;20105;-86
2021/11/16 07:46:15;;;;;;;63.38;19.83;;;6.70;99.90;;;;;;4850272;29;20038;-87
2021/11/16 07:48:41;;;;;;;52.85;17.90;;;6.70;99.90;;;;;;4867147;29;20086;-86
2021/11/16 07:51:16;;;;;;;53.72;18.40;;;6.70;99.90;;;;;;4848957;29;20041;-85
2021/11/16 07:53:51;;;;;;;54.63;18.85;;;6.70;99.90;;;;;;4850200;29;20097;-85
2021/11/16 07:56:21;;;;;;;49.78;17.27;;;6.80;99.90;;;;;;4850044;29;20029;-87
2021/11/16 07:59:04;;;;;;;61.70;20.63;;;6.80;99.90;;;;;;4863033;29;20086;-86
2021/11/16 08:01:57;;;;;;;53.28;18.92;;;6.90;99.90;;;;;;4864326;29;20137;-85
2021/11/16 08:06:57;;;;;;;57.75;19.92;;;6.90;99.90;;;;;;4852138;29;20064;-82
2021/11/16 08:09:30;;;;;;;62.88;19.15;;;6.90;99.90;;;;;;4849297;29;20028;-80
2021/11/16 08:14:45;;;;;;;60.50;19.13;;;6.80;99.90;;;;;;4865257;29;20048;-84
2021/11/16 08:17:13;;;;;;;55.83;19.33;;;6.80;99.90;;;;;;4848793;29;20026;-81
2021/11/16 08:19:40;;;;;;;58.78;18.10;;;6.80;99.90;;;;;;4848326;29;20025;-83
2021/11/16 08:22:12;;;;;;;52.22;18.70;;;6.80;99.90;;;;;;4864987;29;20490;-81
2021/11/16 08:24:41;;;;;;;57.45;18.10;;;6.80;99.90;;;;;;4848520;29;20483;-85
2021/11/16 08:27:14;;;;;;;58.30;17.88;;;6.90;99.90;;;;;;4865910;29;20105;-84
2021/11/16 08:29:43;;;;;;;54.92;19.05;;;7.00;99.90;;;;;;4848856;29;20025;-85
2021/11/16 08:32:16;;;;;;;47.25;17.50;;;7.10;99.90;;;;;;4848844;29;20594;-83
2021/11/16 08:34:45;;;;;;;54.33;18.85;;;7.00;99.90;;;;;;4839184;29;20073;-84
2021/11/16 08:37:12;;;;;;;59.33;19.42;;;7.00;99.90;;;;;;4865372;29;20036;-84
2021/11/16 08:39:55;;;;;;;58.75;18.55;;;6.90;99.90;;;;;;4847322;29;20013;-81
2021/11/16 08:42:29;;;;;;;47.97;17.67;;;6.80;99.90;;;;;;4848155;29;20045;-83
2021/11/16 08:45:27;;;;;;;56.58;18.40;;;6.80;99.90;;;;;;4848010;29;20025;-82
2021/11/16 08:47:56;;;;;;;59.72;17.52;;;6.70;99.90;;;;;;4856226;29;20049;-81
2021/11/16 08:50:32;;;;;;;52.10;17.50;;;6.70;99.90;;;;;;4864404;29;20029;-81
2021/11/16 08:53:06;;;;;;;55.35;18.05;;;6.90;99.90;;;;;;4847738;29;20026;-82
2021/11/16 08:55:37;;;;;;;55.10;18.45;;;7.00;99.90;;;;;;4847849;29;20415;-82
2021/11/16 08:58:05;;;;;;;48.95;16.80;;;7.00;99.90;;;;;;4864564;29;20053;-83
2021/11/16 09:01:03;;;;;;;65.70;19.30;;;6.90;99.90;;;;;;4860739;29;20041;-83
2021/11/16 09:03:31;;;;;;;60.20;18.77;;;6.90;99.90;;;;;;4863345;29;20394;-83
2021/11/16 09:06:00;;;;;;;59.90;19.00;;;7.00;99.90;;;;;;4863982;29;20026;-83
2021/11/16 09:08:33;;;;;;;49.42;16.90;;;7.00;99.90;;;;;;4864216;29;20030;-83
2021/11/16 09:11:17;;;;;;;57.88;18.80;;;6.90;99.90;;;;;;4846225;29;20407;-84
2021/11/16 09:13:47;;;;;;;54.20;19.08;;;6.80;99.90;;;;;;4864025;29;20379;-83
2021/11/16 09:16:20;;;;;;;49.97;16.90;;;6.80;99.90;;;;;;4848400;29;20041;-86
2021/11/16 09:18:53;;;;;;;56.80;17.95;;;6.80;99.90;;;;;;4867213;29;20082;-86
2021/11/16 09:21:24;;;;;;;50.92;17.65;;;6.80;99.90;;;;;;4866852;29;20054;-86
2021/11/16 09:24:01;;;;;;;56.67;18.30;;;6.80;99.90;;;;;;4858721;29;20024;-84
2021/11/16 09:26:56;;;;;;;54.67;17.67;;;6.90;99.90;;;;;;4856119;29;20041;-87
2021/11/16 09:29:24;;;;;;;64.22;19.00;;;6.90;99.90;;;;;;4865177;29;20038;-86
2021/11/16 09:31:57;;;;;;;58.65;17.83;;;6.80;99.90;;;;;;4865068;29;20543;-87
2021/11/16 09:34:34;;;;;;;60.67;18.63;;;6.70;99.90;;;;;;4865242;29;20044;-86
2021/11/16 09:37:03;;;;;;;52.22;18.48;;;6.80;99.90;;;;;;4848431;29;20057;-82
2021/11/16 09:39:32;;;;;;;52.50;18.48;;;6.90;99.90;;;;;;4864916;29;20029;-79
2021/11/16 09:42:01;;;;;;;67.60;19.30;;;6.80;99.90;;;;;;4863454;29;20387;-81
2021/11/16 09:44:33;;;;;;;53.05;17.60;;;6.70;99.90;;;;;;4862788;29;20029;-84
2021/11/16 09:47:03;;;;;;;56.10;18.02;;;6.70;99.90;;;;;;4847171;29;20064;-85
2021/11/16 09:49:38;;;;;;;56.38;18.90;;;6.80;99.90;;;;;;4867988;29;20395;-86
2021/11/16 09:52:06;;;;;;;54.30;17.92;;;6.90;99.90;;;;;;4848995;29;20022;-86
2021/11/16 09:54:44;;;;;;;60.40;19.50;;;6.90;99.90;;;;;;4848658;29;20454;-86
2021/11/16 09:57:13;;;;;;;55.03;18.25;;;6.90;99.90;;;;;;4848994;29;20551;-86
2021/11/16 09:59:41;;;;;;;61.38;18.80;;;7.00;99.90;;;;;;4848888;29;20451;-85
2021/11/16 10:02:14;;;;;;;69.60;20.23;;;7.00;99.90;;;;;;4848565;29;20032;-80
2021/11/16 10:04:46;;;;;;;56.38;18.70;;;7.00;99.90;;;;;;4860960;29;20067;-87
2021/11/16 10:07:13;;;;;;;58.55;19.80;;;7.10;99.90;;;;;;4862874;29;20030;-86
2021/11/16 10:09:42;;;;;;;48.40;17.77;;;7.20;99.90;;;;;;4868306;29;20033;-87
2021/11/16 10:12:08;;;;;;;71.82;19.48;;;7.10;99.90;;;;;;4882718;29;20090;-87
2021/11/16 10:14:34;;;;;;;59.45;18.30;;;7.10;99.90;;;;;;4873551;29;20050;-88
2021/11/16 10:17:00;;;;;;;58.75;17.75;;;7.10;99.90;;;;;;4849736;29;20045;-87
2021/11/16 10:19:25;;;;;;;66.30;19.23;;;7.10;99.90;;;;;;4865534;29;20435;-87
2021/11/16 10:21:51;;;;;;;64.50;20.83;;;7.10;99.90;;;;;;4851414;29;20376;-87
2021/11/16 10:24:29;;;;;;;59.65;18.92;;;7.10;99.90;;;;;;4849382;29;20073;-87
2021/11/16 10:27:22;;;;;;;64.10;19.95;;;7.10;99.90;;;;;;4850809;29;20117;-87
2021/11/16 10:30:06;;;;;;;58.38;18.70;;;7.10;99.90;;;;;;4848679;29;20181;-87
2021/11/16 10:32:32;;;;;;;64.50;19.67;;;7.10;99.90;;;;;;4868130;29;20021;-86
2021/11/16 10:35:14;;;;;;;52.70;18.48;;;7.20;99.90;;;;;;4866212;29;20364;-86
2021/11/16 10:37:48;;;;;;;60.97;19.00;;;7.10;99.90;;;;;;4852864;29;20482;-86
2021/11/16 10:40:16;;;;;;;59.80;17.92;;;7.20;99.90;;;;;;4865436;29;20038;-86
2021/11/16 10:42:44;;;;;;;67.75;20.40;;;7.20;99.90;;;;;;4866109;29;20109;-87
2021/11/16 10:45:15;;;;;;;57.42;18.45;;;7.20;99.90;;;;;;4865456;29;20037;-85
2021/11/16 10:47:44;;;;;;;59.40;18.60;;;7.20;99.90;;;;;;4850104;29;20034;-85
2021/11/16 10:50:12;;;;;;;61.65;19.02;;;7.20;99.90;;;;;;4851020;29;20058;-87
2021/11/16 10:52:38;;;;;;;65.22;21.42;;;7.20;99.90;;;;;;4856906;29;20041;-85
2021/11/16 10:55:05;;;;;;;68.65;19.25;;;7.20;99.90;;;;;;4856040;29;20045;-85
2021/11/16 10:58:06;;;;;;;72.93;18.73;;;7.20;99.90;;;;;;4855737;29;20463;-85
2021/11/16 11:00:34;;;;;;;61.33;18.75;;;7.20;99.90;;;;;;4836178;29;20041;-85
2021/11/16 11:03:42;;;;;;;56.95;18.90;;;7.20;99.90;;;;;;4854744;29;20030;-85
2021/11/16 11:06:11;;;;;;;65.05;20.63;;;7.30;99.90;;;;;;4823987;29;20487;-86
2021/11/16 11:08:43;;;;;;;66.85;19.58;;;7.20;99.90;;;;;;4871738;29;20025;-84
2021/11/16 11:11:22;;;;;;;58.17;19.33;;;7.30;99.90;;;;;;4838159;29;20054;-83
2021/11/16 11:13:54;;;;;;;65.30;20.17;;;7.30;99.90;;;;;;4839344;29;20049;-83
2021/11/16 11:16:20;;;;;;;55.13;18.33;;;7.20;99.90;;;;;;4863572;29;20053;-85
2021/11/16 11:18:50;;;;;;;64.68;19.65;;;7.20;99.90;;;;;;4855058;29;20042;-85
2021/11/16 11:21:38;;;;;;;64.57;19.00;;;7.20;99.90;;;;;;4854960;29;20029;-86
2021/11/16 11:24:12;;;;;;;;;;;7.20;99.90;;;;;;4855667;29;20078;-85
2021/11/16 11:26:52;;;;;;;58.15;17.20;;;7.20;99.90;;;;;;4869676;29;19919;-84
2021/11/16 11:29:42;;;;;;;58.30;18.42;;;7.20;99.90;;;;;;4855630;29;20054;-85
2021/11/16 11:32:26;;;;;;;60.92;18.70;;;7.20;99.90;;;;;;4851349;29;20041;-85
2021/11/16 11:35:13;;;;;;;59.13;16.55;;;7.20;99.90;;;;;;4872428;29;20047;-85
2021/11/16 11:37:48;;;;;;;56.83;17.65;;;7.20;99.90;;;;;;4854858;29;20045;-85
2021/11/16 11:40:19;;;;;;;58.97;17.25;;;7.20;99.90;;;;;;4868257;29;20505;-85
2021/11/16 11:42:58;;;;;;;49.92;17.13;;;7.20;99.90;;;;;;4856239;29;20478;-86
2021/11/16 11:45:38;;;;;;;55.72;17.63;;;7.20;99.90;;;;;;4855817;29;20034;-83
2021/11/16 11:48:12;;;;;;;53.17;16.92;;;7.20;99.90;;;;;;4874603;29;20094;-85
2021/11/16 11:50:42;;;;;;;53.53;18.00;;;7.30;99.90;;;;;;4873442;29;20044;-84
2021/11/16 11:53:16;;;;;;;58.60;17.48;;;7.30;99.90;;;;;;4859221;29;20022;-85
2021/11/16 11:55:52;;;;;;;58.20;18.65;;;7.30;99.90;;;;;;4856967;29;20046;-84
2021/11/16 11:58:19;;;;;;;60.40;18.40;;;7.30;99.90;;;;;;4858202;29;20037;-83
2021/11/16 12:00:47;;;;;;;52.90;17.40;;;7.20;99.90;;;;;;4865105;29;20034;-84
2021/11/16 12:03:14;;;;;;;60.55;17.27;;;7.20;99.90;;;;;;4856151;29;20026;-83
2021/11/16 12:05:41;;;;;;;53.80;17.35;;;7.20;99.90;;;;;;4851031;29;20029;-80
2021/11/16 12:08:09;;;;;;;60.97;18.38;;;7.20;99.90;;;;;;4840183;29;20042;-85
2021/11/16 12:10:37;;;;;;;50.08;16.52;;;7.10;99.90;;;;;;4839671;29;20180;-84
2021/11/16 12:13:03;;;;;;;;;;;7.10;99.90;;;;;;4840114;29;20041;-82
2021/11/16 12:15:36;;;;;;;56.30;17.13;;;7.10;99.90;;;;;;4860309;29;19924;-84
2021/11/16 12:18:03;;;;;;;54.25;17.33;;;7.10;99.90;;;;;;4858982;29;20048;-82
2021/11/16 12:20:49;;;;;;;55.43;17.57;;;7.10;99.90;;;;;;4861929;29;20419;-83
2021/11/16 12:23:47;;;;;;;61.35;17.80;;;7.00;99.90;;;;;;4840196;29;21030;-81
2021/11/16 12:26:14;;;;;;;50.05;15.32;;;7.00;99.90;;;;;;4856134;29;20040;-82
2021/11/16 12:28:41;;;;;;;35.88;11.40;;;6.90;99.90;;;;;;4858397;29;20056;-84
2021/11/16 12:31:20;;;;;;;53.92;15.55;;;6.90;99.90;;;;;;4845789;29;20026;-81
2021/11/16 12:33:49;;;;;;;51.78;15.60;;;6.90;99.90;;;;;;4841656;29;20033;-82
2021/11/16 12:36:17;;;;;;;45.83;15.85;;;6.90;99.90;;;;;;4840179;29;20041;-79
2021/11/16 12:38:47;;;;;;;;;;;6.90;99.90;;;;;;4855994;29;20037;-82
2021/11/16 12:42:07;;;;;;;42.72;14.43;;;6.90;99.90;;;;;;4861508;29;19961;-81
2021/11/16 12:44:33;;;;;;;49.03;14.88;;;6.90;99.90;;;;;;4807944;29;20035;-79
2021/11/16 12:47:08;;;;;;;51.83;15.90;;;7.00;99.90;;;;;;4808565;29;20107;-82
2021/11/16 12:49:39;;;;;;;44.53;14.50;;;7.00;99.90;;;;;;4841560;29;20128;-82
2021/11/16 12:52:08;;;;;;;52.85;15.07;;;7.00;99.90;;;;;;4857851;29;20026;-82
2021/11/16 12:54:35;;;;;;;53.33;15.30;;;7.00;99.90;;;;;;4844819;29;20029;-84
2021/11/16 12:57:01;;;;;;;38.20;12.13;;;6.90;99.90;;;;;;4841980;29;20056;-83
2021/11/16 12:59:33;;;;;;;53.67;15.25;;;6.80;99.90;;;;;;4859236;29;20029;-84
2021/11/16 13:02:00;;;;;;;52.03;16.10;;;6.80;99.90;;;;;;4845591;29;20085;-86
2021/11/16 13:04:49;;;;;;;53.15;16.55;;;6.80;99.90;;;;;;4845895;29;20073;-83
2021/11/16 13:07:26;;;;;;;47.20;15.30;;;6.80;99.90;;;;;;4852441;29;20495;-84